TimeMDT,TemperatureF,Dew PointF,Humidity,Sea Level PressureIn,VisibilityMPH,Wind Direction,Wind SpeedMPH,Gust SpeedMPH,PrecipitationIn,Events,Conditions,WindDirDegrees,DateUTC
12:53 AM,34.0,27.0,75,30.04,10.0,NW,12.7,-,N/A,,Clear,320,2013-10-17 06:53:00
1:53 AM,32.0,26.1,79,30.04,10.0,WNW,10.4,-,N/A,,Clear,290,2013-10-17 07:53:00
2:53 AM,30.9,26.1,82,30.05,10.0,West,10.4,-,N/A,,Clear,270,2013-10-17 08:53:00
3:53 AM,32.0,26.1,79,30.04,10.0,West,10.4,-,N/A,,Clear,270,2013-10-17 09:53:00
4:53 AM,33.1,27.0,78,30.06,10.0,West,11.5,-,N/A,,Clear,280,2013-10-17 10:53:00
5:53 AM,34.0,27.0,75,30.07,10.0,WNW,11.5,-,N/A,,Clear,300,2013-10-17 11:53:00
6:53 AM,34.0,28.0,79,30.11,10.0,WNW,9.2,-,N/A,,Clear,300,2013-10-17 12:53:00
7:53 AM,35.1,28.9,78,30.13,10.0,NW,10.4,-,N/A,,Clear,320,2013-10-17 13:53:00
8:53 AM,37.9,30.0,73,30.15,10.0,NNW,13.8,-,N/A,,Clear,340,2013-10-17 14:53:00
9:53 AM,41.0,32.0,70,30.14,10.0,North,15.0,-,N/A,,Clear,350,2013-10-17 15:53:00
10:53 AM,45.0,32.0,60,30.12,10.0,North,10.4,-,N/A,,Clear,360,2013-10-17 16:53:00
11:53 AM,45.0,30.9,58,30.12,10.0,North,9.2,-,N/A,,Clear,10,2013-10-17 17:53:00
12:53 PM,46.0,30.9,56,30.11,10.0,North,13.8,17.3,N/A,,Clear,10,2013-10-17 18:53:00
1:53 PM,46.9,30.9,54,30.08,10.0,North,10.4,-,N/A,,Partly Cloudy,10,2013-10-17 19:53:00
2:53 PM,46.0,30.0,54,30.08,10.0,North,11.5,-,N/A,,Clear,360,2013-10-17 20:53:00
3:53 PM,46.0,30.0,54,30.07,10.0,NNE,10.4,-,N/A,,Partly Cloudy,20,2013-10-17 21:53:00
4:53 PM,44.1,28.9,55,30.07,10.0,NNE,6.9,-,N/A,,Clear,30,2013-10-17 22:53:00
5:53 PM,42.1,30.0,62,30.08,10.0,NNE,5.8,-,N/A,,Overcast,20,2013-10-17 23:53:00
6:53 PM,41.0,30.0,65,30.09,10.0,NE,8.1,-,N/A,,Overcast,40,2013-10-18 00:53:00
7:53 PM,41.0,30.9,67,30.11,10.0,ENE,3.5,-,N/A,,Overcast,60,2013-10-18 01:53:00
8:53 PM,37.9,30.9,76,30.12,10.0,ENE,10.4,-,0.00,Rain,Light Rain,60,2013-10-18 02:53:00
9:06 PM,37.4,32.0,81,30.08,10.0,ENE,8.1,-,0.00,Rain,Light Rain,60,2013-10-18 03:06:00
9:13 PM,37.4,32.0,81,30.09,10.0,NE,9.2,-,0.00,Rain,Light Rain,40,2013-10-18 03:13:00
9:53 PM,35.1,32.0,89,30.13,5.0,NE,13.8,-,0.03,Snow,Light Snow,50,2013-10-18 03:53:00
10:04 PM,33.8,32.0,93,30.10,2.5,NE,9.2,-,0.01,Snow,Light Snow,50,2013-10-18 04:04:00
10:07 PM,33.8,32.0,93,30.10,1.8,NE,10.4,-,0.01,Snow,Light Snow,50,2013-10-18 04:07:00
10:12 PM,33.8,32.0,93,30.10,1.0,NE,9.2,-,0.02,Snow,Light Snow,40,2013-10-18 04:12:00
10:25 PM,32.0,32.0,100,30.10,0.8,ENE,8.1,-,0.03,Snow,Light Snow,60,2013-10-18 04:25:00
10:53 PM,32.0,32.0,100,30.12,1.0,ENE,5.8,-,0.07,Snow,Light Snow,70,2013-10-18 04:53:00
11:01 PM,32.0,32.0,100,30.09,1.2,ENE,8.1,-,0.00,Snow,Light Snow,70,2013-10-18 05:01:00
11:13 PM,32.0,32.0,100,30.09,1.0,East,6.9,-,0.00,Snow,Light Snow,80,2013-10-18 05:13:00
11:20 PM,32.0,32.0,100,30.08,0.8,East,6.9,-,0.00,Snow,Light Snow,80,2013-10-18 05:20:00
11:53 PM,32.0,30.9,96,30.11,0.5,East,6.9,-,0.01,Fog-Snow,Snow,80,2013-10-18 05:53:00